Terminal Aerodrome Forecast
Issued by NWS Charleston, WV

Home | Current Version | Previous Version | Text Only | Print | Product List | Glossary On
Versions: 1 2 3 4 5 6 7 8 9 10 11 12 13 14 15 16 17 18 19 20 21 22 23 24
000
FTUS41 KRLX 020500 RRA
TAFEKN
TAF
KEKN 020550Z 0206/0306 00000KT P6SM BKN080
     FM021400 23006KT P6SM SCT080
     FM021600 25010KT P6SM SCT045
     FM021800 25010G15KT P6SM VCTS SCT045CB
     FM022000 25010G16KT 6SM TSRA BR BKN045CB
     FM030100 26006KT P6SM VCTS BKN070CB
     FM030200 26006KT P6SM BKN080
     FM030400 27005KT 3SM BR BKN140
     FM030500 25004KT 1SM BR SCT001 BKN150=

USA.gov is the U.S. government's official web portal to all federal, state and local government web resources and services.